createdAt,value
2023-03-13T00:00:24.790Z,100216.13
2023-03-13T00:00:58.170Z,100210.31
2023-03-13T00:01:34.550Z,100213.03
2023-03-13T00:02:06.045Z,100212.25
2023-03-13T00:02:37.633Z,100210.31
2023-03-13T00:03:09.056Z,100202.53
2023-03-13T00:03:40.608Z,100198.66
2023-03-13T00:04:12.125Z,100206.81
2023-03-13T00:04:43.490Z,100204.88
2023-03-13T00:05:15.003Z,100199.44
2023-03-13T00:05:46.522Z,100199.44
2023-03-13T00:06:18.488Z,100199.44
2023-03-13T00:06:49.895Z,100188.19
2023-03-13T00:07:21.280Z,100186.25
2023-03-13T00:07:52.721Z,100183.16
2023-03-13T00:08:25.748Z,100185.88
2023-03-13T00:08:57.105Z,100180.03
2023-03-13T00:09:28.575Z,100173.44
2023-03-13T00:09:59.977Z,100179.72
2023-03-13T00:10:31.475Z,100167.22
2023-03-13T00:11:11.386Z,100178.94
2023-03-13T00:11:44.439Z,100174.66
2023-03-13T00:12:15.859Z,100168.78
2023-03-13T00:12:47.252Z,100176.59
2023-03-13T00:13:18.583Z,100171.94
2023-03-13T00:13:54.528Z,100164.50
2023-03-13T00:14:25.878Z,100168.78
2023-03-13T00:14:57.253Z,100171.16
2023-03-13T00:15:28.698Z,100164.91
2023-03-13T00:16:05.808Z,100171.16
2023-03-13T00:16:39.478Z,100162.56
2023-03-13T00:17:10.906Z,100162.94
2023-03-13T00:17:42.394Z,100167.22
2023-03-13T00:18:13.824Z,100161.78
2023-03-13T00:18:50.193Z,100157.53
2023-03-13T00:19:21.558Z,100158.69
2023-03-13T00:19:53.046Z,100163.34
2023-03-13T00:20:24.445Z,100152.09
2023-03-13T00:21:03.273Z,100159.88
2023-03-13T00:21:35.101Z,100154.44
2023-03-13T00:22:06.542Z,100154.06
2023-03-13T00:22:38.101Z,100151.31
2023-03-13T00:23:09.459Z,100153.66
2023-03-13T00:23:41.124Z,100147.06
2023-03-13T00:24:12.740Z,100157.94
2023-03-13T00:24:46.180Z,100156.00
2023-03-13T00:25:17.650Z,100157.16
2023-03-13T00:25:49.010Z,100150.94
2023-03-13T00:26:22.930Z,100145.50
2023-03-13T00:26:55.665Z,100147.44
2023-03-13T00:27:27.105Z,100143.16
2023-03-13T00:27:58.552Z,100146.66
2023-03-13T00:28:32.731Z,100147.44
2023-03-13T00:29:04.455Z,100142.38
2023-03-13T00:29:36.028Z,100147.81
2023-03-13T00:30:07.919Z,100145.09
2023-03-13T00:30:39.356Z,100140.84
2023-03-13T00:31:13.916Z,100142.78
2023-03-13T00:31:45.317Z,100144.72
2023-03-13T00:32:16.784Z,100138.91
2023-03-13T00:32:48.741Z,100129.19
2023-03-13T00:33:20.162Z,100135.00
2023-03-13T00:33:54.618Z,100131.50
2023-03-13T00:34:27.457Z,100131.50
2023-03-13T00:34:58.823Z,100134.22
2023-03-13T00:35:30.359Z,100117.56
2023-03-13T00:36:04.292Z,100126.84
2023-03-13T00:36:36.301Z,100127.63
2023-03-13T00:37:07.756Z,100117.94
2023-03-13T00:37:39.315Z,100118.72
2023-03-13T00:38:10.661Z,100118.34
2023-03-13T00:38:42.902Z,100121.84
2023-03-13T00:39:14.238Z,100108.25
2023-03-13T00:39:45.631Z,100108.63
2023-03-13T00:40:17.049Z,100104.75
2023-03-13T00:40:48.383Z,100105.91
2023-03-13T00:41:22.600Z,100109.03
2023-03-13T00:41:53.961Z,100097.38
2023-03-13T00:42:25.315Z,100104.75
2023-03-13T00:42:56.832Z,100103.59
2023-03-13T00:43:28.653Z,100099.72
2023-03-13T00:44:00.426Z,100095.03
2023-03-13T00:44:31.907Z,100083.41
2023-03-13T00:45:03.966Z,100087.69
2023-03-13T00:45:35.335Z,100089.25
2023-03-13T00:46:07.454Z,100088.88
2023-03-13T00:46:39.094Z,100083.44
2023-03-13T00:47:10.438Z,100083.03
2023-03-13T00:47:41.877Z,100080.31
2023-03-13T00:48:13.291Z,100080.31
2023-03-13T00:48:44.788Z,100083.03
2023-03-13T00:49:16.181Z,100076.81
2023-03-13T00:49:47.564Z,100078.75
2023-03-13T00:50:18.968Z,100074.88
2023-03-13T00:50:50.446Z,100082.63
2023-03-13T00:51:27.012Z,100083.81
2023-03-13T00:51:59.199Z,100076.81
2023-03-13T00:52:30.573Z,100078.38
2023-03-13T00:53:02.030Z,100074.09
2023-03-13T00:53:34.066Z,100067.88
2023-03-13T00:54:05.799Z,100066.72
2023-03-13T00:54:37.191Z,100070.19
2023-03-13T00:55:09.135Z,100067.88
2023-03-13T00:55:57.737Z,100063.63
2023-03-13T00:56:29.696Z,100057.81
2023-03-13T00:57:01.092Z,100062.06
2023-03-13T00:57:32.480Z,100062.47
2023-03-13T00:58:03.863Z,100057.41
2023-03-13T00:58:38.308Z,100068.66
2023-03-13T00:59:09.800Z,100051.97
2023-03-13T00:59:41.236Z,100051.56
2023-03-13T01:00:13.139Z,100057.81
2023-03-13T01:00:44.531Z,100057.03
2023-03-13T01:01:45.082Z,100043.81
2023-03-13T01:02:16.576Z,100048.47
2023-03-13T01:02:48.218Z,100046.91
2023-03-13T01:03:21.292Z,100044.97
2023-03-13T01:03:55.339Z,100039.19
2023-03-13T01:04:26.716Z,100038.38
2023-03-13T01:05:00.083Z,100035.28
2023-03-13T01:05:31.488Z,100036.06
2023-03-13T01:06:04.582Z,100038.38
2023-03-13T01:06:38.070Z,100030.25
2023-03-13T01:07:09.514Z,100036.06
2023-03-13T01:07:40.851Z,100022.47
2023-03-13T01:08:12.265Z,100025.16
2023-03-13T01:08:43.789Z,100029.84
2023-03-13T01:09:16.557Z,100032.56
2023-03-13T01:09:47.964Z,100034.13
2023-03-13T01:10:19.353Z,100030.63
2023-03-13T01:10:50.816Z,100035.28
2023-03-13T01:11:25.306Z,100021.28
2023-03-13T01:11:56.694Z,100013.94
2023-03-13T01:12:28.082Z,100023.63
2023-03-13T01:12:59.425Z,100010.84
2023-03-13T01:13:33.017Z,100015.88
2023-03-13T01:14:07.821Z,100020.50
2023-03-13T01:14:39.216Z,100014.72
2023-03-13T01:15:11.351Z,100005.78
2023-03-13T01:15:42.729Z,100008.13
2023-03-13T01:16:19.637Z,100009.66
2023-03-13T01:16:51.143Z,100009.69
2023-03-13T01:17:22.516Z,100013.56
2023-03-13T01:17:53.917Z,100013.56
2023-03-13T01:18:25.261Z,100020.53
2023-03-13T01:19:00.277Z,100005.00
2023-03-13T01:19:31.643Z,100012.38
2023-03-13T01:20:03.385Z,100015.47
2023-03-13T01:20:34.754Z,99999.97
2023-03-13T01:21:07.051Z,100003.09
2023-03-13T01:21:38.661Z,99992.19
2023-03-13T01:22:12.582Z,99997.25
2023-03-13T01:22:43.972Z,99994.94
2023-03-13T01:23:15.774Z,100005.44
2023-03-13T01:23:48.736Z,99995.34
2023-03-13T01:24:20.213Z,99998.06
2023-03-13T01:24:52.481Z,99990.28
2023-03-13T01:25:24.020Z,99988.72
2023-03-13T01:25:56.492Z,99994.19
2023-03-13T01:26:28.218Z,99991.06
2023-03-13T01:26:59.618Z,99989.53
2023-03-13T01:27:31.531Z,99989.53
2023-03-13T01:28:03.399Z,99989.13
2023-03-13T01:28:36.192Z,99978.25
2023-03-13T01:29:07.750Z,99975.16
2023-03-13T01:29:39.232Z,99979.03
2023-03-13T01:30:11.300Z,99981.75
2023-03-13T01:30:42.705Z,99984.47
2023-03-13T01:31:18.689Z,99971.25
2023-03-13T01:31:50.100Z,99975.16
2023-03-13T01:32:21.595Z,99973.22
2023-03-13T01:32:53.073Z,99975.59
2023-03-13T01:33:24.538Z,99974.78
2023-03-13T01:33:58.685Z,99962.34
2023-03-13T01:34:30.063Z,99970.56
2023-03-13T01:35:01.411Z,99969.34
2023-03-13T01:35:32.903Z,99970.94
2023-03-13T01:36:04.834Z,99958.91
2023-03-13T01:36:37.800Z,99964.75
2023-03-13T01:37:09.201Z,99960.88
2023-03-13T01:37:40.585Z,99965.13
2023-03-13T01:38:12.131Z,99966.28
2023-03-13T01:38:43.642Z,99955.44
2023-03-13T01:39:15.034Z,99952.31
2023-03-13T01:39:46.371Z,99960.47
2023-03-13T01:40:17.845Z,99951.56
2023-03-13T01:40:49.440Z,99944.97
2023-03-13T01:41:22.351Z,99952.72
2023-03-13T01:41:53.849Z,99941.09
2023-03-13T01:42:25.248Z,99938.75
2023-03-13T01:42:59.423Z,99946.91
2023-03-13T01:43:33.049Z,99937.59
2023-03-13T01:44:04.445Z,99931.00
2023-03-13T01:44:56.810Z,99928.28
2023-03-13T01:46:03.983Z,99936.44
2023-03-13T01:46:35.569Z,99929.06
2023-03-13T01:47:07.114Z,99924.41
2023-03-13T01:47:38.561Z,99929.84
2023-03-13T01:48:10.094Z,99920.53
2023-03-13T01:48:47.456Z,99925.56
2023-03-13T01:49:33.204Z,99913.91
2023-03-13T01:50:04.851Z,99913.91
2023-03-13T01:50:36.332Z,99911.19
2023-03-13T01:51:12.845Z,99914.31
2023-03-13T01:51:49.376Z,99909.28
2023-03-13T01:52:25.850Z,99907.72
2023-03-13T01:52:57.542Z,99906.94
2023-03-13T01:53:33.332Z,99917.44
2023-03-13T01:54:13.912Z,99912.00
2023-03-13T01:55:09.063Z,99905.78
2023-03-13T01:55:40.997Z,99908.91
2023-03-13T01:56:18.575Z,99904.25
2023-03-13T01:57:01.830Z,99904.25
2023-03-13T01:57:37.638Z,99902.69
2023-03-13T01:58:09.061Z,99902.69
2023-03-13T01:58:40.792Z,99901.53
2023-03-13T01:59:20.935Z,99896.47
2023-03-13T02:00:16.169Z,99894.53
2023-03-13T02:00:48.494Z,99889.50
2023-03-13T02:01:20.466Z,99891.06
2023-03-13T02:01:55.164Z,99877.84
2023-03-13T02:02:27.373Z,99894.16
2023-03-13T02:03:04.198Z,99887.56
2023-03-13T02:03:36.955Z,99886.78
2023-03-13T02:04:08.735Z,99882.13
2023-03-13T02:04:46.106Z,99885.25
2023-03-13T02:05:20.972Z,99874.75
2023-03-13T02:05:52.536Z,99863.88
2023-03-13T02:06:27.950Z,99874.75
2023-03-13T02:07:04.490Z,99873.97
2023-03-13T02:07:43.290Z,99873.59
2023-03-13T02:08:21.239Z,99871.28
2023-03-13T02:09:01.785Z,99871.28
2023-03-13T02:09:34.569Z,99866.63
2023-03-13T02:10:07.687Z,99866.19
2023-03-13T02:10:46.503Z,99865.03
2023-03-13T02:11:27.110Z,99870.47
2023-03-13T02:12:07.706Z,99868.16
2023-03-13T02:12:40.660Z,99869.31
2023-03-13T02:13:15.162Z,99857.28
2023-03-13T02:13:48.629Z,99856.91
2023-03-13T02:14:23.456Z,99861.94
2023-03-13T02:14:57.580Z,99858.84
2023-03-13T02:15:31.322Z,99837.47
2023-03-13T02:16:03.174Z,99851.47
2023-03-13T02:16:35.433Z,99839.41
2023-03-13T02:17:07.457Z,99837.88
2023-03-13T02:17:40.494Z,99829.72
2023-03-13T02:18:12.084Z,99841.75
2023-03-13T02:18:44.331Z,99832.44
2023-03-13T02:19:38.244Z,99836.72
2023-03-13T02:20:11.254Z,99836.72
2023-03-13T02:20:43.018Z,99823.13
2023-03-13T02:21:37.437Z,99832.06
2023-03-13T02:22:44.503Z,99827.38
2023-03-13T02:23:24.797Z,99826.22
2023-03-13T02:24:09.478Z,99828.16
2023-03-13T02:25:08.446Z,99814.19
2023-03-13T02:25:46.601Z,99819.25
2023-03-13T02:26:18.201Z,99815.75
2023-03-13T02:26:49.677Z,99814.19
2023-03-13T02:27:21.470Z,99816.13
2023-03-13T02:28:03.198Z,99817.69
2023-03-13T02:28:39.046Z,99814.19
2023-03-13T02:29:18.183Z,99819.25
2023-03-13T02:29:49.782Z,99820.03
2023-03-13T02:30:21.365Z,99813.81
2023-03-13T02:30:55.737Z,99808.72
2023-03-13T02:31:27.347Z,99811.44
2023-03-13T02:31:58.961Z,99801.75
2023-03-13T02:32:31.661Z,99811.06
2023-03-13T02:33:04.327Z,99796.69
2023-03-13T02:33:42.296Z,99809.50
2023-03-13T02:34:18.127Z,99800.97
2023-03-13T02:34:53.258Z,99786.22
2023-03-13T02:35:24.784Z,99793.97
2023-03-13T02:35:59.159Z,99793.19
2023-03-13T02:36:31.058Z,99795.53
2023-03-13T02:37:05.641Z,99800.19
2023-03-13T02:37:38.126Z,99795.53
2023-03-13T02:38:15.245Z,99798.63
2023-03-13T02:39:01.943Z,99800.19
2023-03-13T02:39:34.795Z,99800.97
2023-03-13T02:40:11.066Z,99795.53
2023-03-13T02:40:45.329Z,99801.75
2023-03-13T02:41:18.040Z,99795.53
2023-03-13T02:41:51.547Z,99797.84
2023-03-13T02:42:23.858Z,99798.25
2023-03-13T02:42:56.921Z,99797.84
2023-03-13T02:43:33.802Z,99786.19
2023-03-13T02:44:06.005Z,99794.38
2023-03-13T02:44:41.557Z,99794.34
2023-03-13T02:45:17.936Z,99801.34
2023-03-13T02:46:08.205Z,99795.53
2023-03-13T02:46:50.225Z,99793.56
2023-03-13T02:47:23.993Z,99797.06
2023-03-13T02:47:55.401Z,99793.16
2023-03-13T02:48:41.895Z,99779.97
2023-03-13T02:49:21.087Z,99791.63
2023-03-13T02:49:52.563Z,99789.31
2023-03-13T02:50:24.195Z,99778.81
2023-03-13T02:50:55.814Z,99789.28
2023-03-13T02:51:30.559Z,99775.28
2023-03-13T02:52:27.768Z,99776.06
2023-03-13T02:53:03.555Z,99784.63
2023-03-13T02:53:35.649Z,99780.72
2023-03-13T02:54:11.872Z,99777.22
2023-03-13T02:54:47.191Z,99774.50
2023-03-13T02:55:24.551Z,99769.06
2023-03-13T02:55:56.250Z,99780.34
2023-03-13T02:56:31.676Z,99760.53
2023-03-13T02:57:04.567Z,99778.78
2023-03-13T02:57:36.272Z,99763.25
2023-03-13T02:58:08.414Z,99770.22
2023-03-13T02:58:49.667Z,99774.50
2023-03-13T02:59:22.019Z,99771.38
2023-03-13T02:59:53.574Z,99775.66
2023-03-13T03:00:26.792Z,99774.50
2023-03-13T03:01:07.538Z,99780.31
2023-03-13T03:01:39.079Z,99770.59
2023-03-13T03:02:10.495Z,99773.69
2023-03-13T03:02:41.868Z,99779.50
2023-03-13T03:03:13.237Z,99772.53
2023-03-13T03:03:44.704Z,99776.78
2023-03-13T03:04:16.128Z,99768.25
2023-03-13T03:04:47.784Z,99774.84
2023-03-13T03:05:19.478Z,99773.66
2023-03-13T03:05:51.151Z,99780.66
2023-03-13T03:06:22.767Z,99785.72
2023-03-13T03:06:54.187Z,99773.66
2023-03-13T03:07:25.628Z,99788.44
2023-03-13T03:07:57.043Z,99788.44
2023-03-13T03:08:28.541Z,99796.59
2023-03-13T03:08:59.933Z,99781.81
2023-03-13T03:09:31.311Z,99774.81
2023-03-13T03:10:03.024Z,99779.09
2023-03-13T03:10:37.014Z,99784.50
2023-03-13T03:11:08.397Z,99773.22
2023-03-13T03:11:39.789Z,99776.72
2023-03-13T03:12:11.202Z,99776.72
2023-03-13T03:12:42.621Z,99774.00
2023-03-13T03:13:14.088Z,99775.16
2023-03-13T03:13:46.116Z,99775.16
2023-03-13T03:14:18.319Z,99775.94
2023-03-13T03:14:49.952Z,99779.44
2023-03-13T03:15:22.565Z,99782.16
2023-03-13T03:15:54.184Z,99772.03
2023-03-13T03:16:25.596Z,99774.75
2023-03-13T03:16:56.980Z,99772.41
2023-03-13T03:17:28.316Z,99779.03
2023-03-13T03:17:59.670Z,99783.31
2023-03-13T03:18:33.064Z,99773.59
2023-03-13T03:19:09.497Z,99774.34
2023-03-13T03:19:40.908Z,99771.22
2023-03-13T03:20:12.389Z,99764.59
2023-03-13T03:20:43.815Z,99768.50
2023-03-13T03:21:15.224Z,99775.47
2023-03-13T03:21:46.787Z,99777.78
2023-03-13T03:22:18.722Z,99774.69
2023-03-13T03:22:50.119Z,99765.72
2023-03-13T03:23:21.663Z,99769.22
2023-03-13T03:23:53.065Z,99765.72
2023-03-13T03:24:24.569Z,99761.84
2023-03-13T03:24:56.032Z,99770.38
2023-03-13T03:25:27.368Z,99770.78
2023-03-13T03:25:58.868Z,99761.81
2023-03-13T03:26:30.616Z,99770.38
2023-03-13T03:27:02.243Z,99768.81
2023-03-13T03:27:33.756Z,99766.88
2023-03-13T03:28:05.315Z,99767.59
2023-03-13T03:28:36.728Z,99752.47
2023-03-13T03:29:08.353Z,99749.75
2023-03-13T03:29:39.739Z,99756.72
2023-03-13T03:30:11.911Z,99762.16
2023-03-13T03:30:43.433Z,99760.22
2023-03-13T03:31:15.744Z,99766.03
2023-03-13T03:31:47.308Z,99760.59
2023-03-13T03:32:18.819Z,99752.41
2023-03-13T03:32:50.291Z,99764.06
2023-03-13T03:33:23.031Z,99761.72
2023-03-13T03:33:54.461Z,99750.84
2023-03-13T03:34:25.943Z,99753.16
2023-03-13T03:34:57.273Z,99741.88
2023-03-13T03:35:28.647Z,99749.66
2023-03-13T03:36:01.717Z,99744.63
2023-03-13T03:36:33.062Z,99745.38
2023-03-13T03:37:04.447Z,99750.06
2023-03-13T03:37:35.847Z,99739.16
2023-03-13T03:38:07.223Z,99738.38
2023-03-13T03:38:39.775Z,99740.31
2023-03-13T03:39:11.155Z,99732.91
2023-03-13T03:39:42.487Z,99736.41
2023-03-13T03:40:14.273Z,99744.53
2023-03-13T03:40:45.673Z,99737.56
2023-03-13T03:41:17.567Z,99747.63
2023-03-13T03:41:48.970Z,99736.34
2023-03-13T03:42:20.385Z,99742.97
2023-03-13T03:42:51.863Z,99743.72
2023-03-13T03:43:23.249Z,99744.88
2023-03-13T03:43:54.665Z,99737.13
2023-03-13T03:44:26.125Z,99744.50
2023-03-13T03:44:57.722Z,99753.06
2023-03-13T03:45:29.235Z,99752.25
2023-03-13T03:46:01.320Z,99744.50
2023-03-13T03:46:33.308Z,99752.25
2023-03-13T03:47:04.860Z,99755.00
2023-03-13T03:47:36.253Z,99746.41
2023-03-13T03:48:07.623Z,99753.81
2023-03-13T03:48:39.461Z,99751.06
2023-03-13T03:49:11.005Z,99753.41
2023-03-13T03:49:42.555Z,99743.69
2023-03-13T03:50:14.159Z,99738.66
2023-03-13T03:50:45.570Z,99746.78
2023-03-13T03:51:16.918Z,99747.19
2023-03-13T03:51:49.521Z,99751.44
2023-03-13T03:52:20.947Z,99744.44
2023-03-13T03:52:52.485Z,99747.19
2023-03-13T03:53:24.874Z,99745.59
2023-03-13T03:53:56.320Z,99739.78
2023-03-13T03:54:27.901Z,99735.09
2023-03-13T03:54:59.298Z,99746.78
2023-03-13T03:55:30.784Z,99743.66
2023-03-13T03:56:02.339Z,99744.06
2023-03-13T03:56:33.796Z,99724.59
2023-03-13T03:57:05.214Z,99732.75
2023-03-13T03:57:36.572Z,99733.13
2023-03-13T03:58:07.992Z,99741.69
2023-03-13T03:58:39.453Z,99729.66
2023-03-13T03:59:11.005Z,99733.13
2023-03-13T03:59:42.386Z,99736.22
2023-03-13T04:00:16.092Z,99737.38
2023-03-13T04:00:48.744Z,99737.00
2023-03-13T04:01:20.190Z,99727.25
2023-03-13T04:01:51.628Z,99732.31
2023-03-13T04:02:23.080Z,99740.50
2023-03-13T04:02:56.135Z,99735.81
2023-03-13T04:03:27.718Z,99740.09
2023-03-13T04:03:59.435Z,99737.38
2023-03-13T04:04:30.975Z,99729.19
2023-03-13T04:05:02.578Z,99732.31
2023-03-13T04:05:34.112Z,99745.91
2023-03-13T04:06:07.071Z,99745.50
2023-03-13T04:06:38.443Z,99732.66
2023-03-13T04:07:09.964Z,99728.78
2023-03-13T04:07:41.424Z,99728.78
2023-03-13T04:08:12.866Z,99733.81
2023-03-13T04:08:44.275Z,99724.88
2023-03-13T04:09:15.726Z,99733.81
2023-03-13T04:09:47.203Z,99735.00
2023-03-13T04:10:18.696Z,99719.41
2023-03-13T04:10:50.513Z,99722.91
2023-03-13T04:11:22.397Z,99727.97
2023-03-13T04:11:53.724Z,99724.41
2023-03-13T04:12:25.557Z,99725.63
2023-03-13T04:12:56.972Z,99715.50
2023-03-13T04:13:28.384Z,99710.03
2023-03-13T04:13:59.810Z,99720.50
2023-03-13T04:14:31.177Z,99709.22
2023-03-13T04:15:02.707Z,99711.16
2023-03-13T04:15:34.523Z,99708.03
2023-03-13T04:16:09.727Z,99722.03
2023-03-13T04:16:41.267Z,99714.63
2023-03-13T04:17:13.626Z,99720.88
2023-03-13T04:17:45.027Z,99727.09
2023-03-13T04:18:16.802Z,99713.06
2023-03-13T04:18:48.202Z,99714.59
2023-03-13T04:19:19.670Z,99714.59
2023-03-13T04:19:51.147Z,99708.38
2023-03-13T04:20:22.630Z,99725.50
2023-03-13T04:21:04.141Z,99708.75
2023-03-13T04:21:35.524Z,99706.44
2023-03-13T04:22:07.101Z,99695.91
2023-03-13T04:22:38.495Z,99709.94
2023-03-13T04:23:10.034Z,99719.66
2023-03-13T04:23:41.456Z,99706.84
2023-03-13T04:24:12.850Z,99694.75
2023-03-13T04:24:44.269Z,99713.03
2023-03-13T04:25:15.626Z,99697.09
2023-03-13T04:25:47.098Z,99704.47
2023-03-13T04:26:18.463Z,99695.91
2023-03-13T04:26:49.778Z,99697.84
2023-03-13T04:27:21.210Z,99691.22
2023-03-13T04:27:52.546Z,99697.06
2023-03-13T04:28:23.892Z,99694.69
2023-03-13T04:28:55.235Z,99687.28
2023-03-13T04:29:26.713Z,99693.91
2023-03-13T04:29:58.155Z,99692.78
2023-03-13T04:30:29.560Z,99695.47
2023-03-13T04:31:01.459Z,99691.91
2023-03-13T04:31:33.393Z,99694.25
2023-03-13T04:32:04.930Z,99690.75
2023-03-13T04:32:36.352Z,99693.06
2023-03-13T04:33:07.726Z,99709.41
2023-03-13T04:33:39.188Z,99684.09
2023-03-13T04:34:10.710Z,99689.16
2023-03-13T04:34:42.096Z,99684.88
2023-03-13T04:35:13.722Z,99686.44
2023-03-13T04:35:45.271Z,99687.22
2023-03-13T04:36:16.827Z,99678.66
2023-03-13T04:36:48.281Z,99675.53
2023-03-13T04:37:19.857Z,99685.66
2023-03-13T04:37:51.188Z,99683.72
2023-03-13T04:38:23.261Z,99672.03
2023-03-13T04:38:54.695Z,99679.81
2023-03-13T04:39:26.177Z,99674.34
2023-03-13T04:39:57.529Z,99672.41
2023-03-13T04:40:29.460Z,99667.72
2023-03-13T04:41:00.931Z,99656.06
2023-03-13T04:41:32.405Z,99656.81
2023-03-13T04:42:04.021Z,99663.06
2023-03-13T04:42:35.352Z,99662.28
2023-03-13T04:43:06.799Z,99663.03
2023-03-13T04:43:38.434Z,99653.72
2023-03-13T04:44:09.986Z,99663.03
2023-03-13T04:44:43.436Z,99665.41
2023-03-13T04:45:15.093Z,99654.47
2023-03-13T04:45:46.727Z,99657.59
2023-03-13T04:46:18.738Z,99666.53
2023-03-13T04:46:50.323Z,99652.91
2023-03-13T04:47:21.726Z,99650.56
2023-03-13T04:47:53.206Z,99655.22
2023-03-13T04:48:24.641Z,99653.69
2023-03-13T04:48:55.989Z,99652.13
2023-03-13T04:49:27.464Z,99652.50
2023-03-13T04:49:58.837Z,99649.78
2023-03-13T04:50:30.267Z,99665.34
2023-03-13T04:51:01.628Z,99660.66
2023-03-13T04:51:33.103Z,99657.94
2023-03-13T04:52:04.773Z,99663.00
2023-03-13T04:52:36.215Z,99660.69
2023-03-13T04:53:07.667Z,99654.03
2023-03-13T04:53:39.175Z,99661.44
2023-03-13T04:54:11.538Z,99650.56
2023-03-13T04:54:43.033Z,99659.47
2023-03-13T04:55:14.473Z,99659.47
2023-03-13T04:55:48.467Z,99661.81
2023-03-13T04:56:41.849Z,99659.84
2023-03-13T04:57:13.922Z,99662.56
2023-03-13T04:57:45.296Z,99659.84
2023-03-13T04:58:16.651Z,99651.66
2023-03-13T04:58:48.314Z,99662.56
2023-03-13T04:59:19.723Z,99665.31
2023-03-13T04:59:51.136Z,99647.03
2023-03-13T05:00:22.603Z,99646.25
2023-03-13T05:00:54.961Z,99651.66
2023-03-13T05:01:26.366Z,99645.84
2023-03-13T05:01:57.839Z,99655.94
2023-03-13T05:02:29.206Z,99650.13
2023-03-13T05:03:00.563Z,99643.84
2023-03-13T05:03:31.972Z,99645.81
2023-03-13T05:04:03.631Z,99654.75
2023-03-13T05:04:35.135Z,99645.81
2023-03-13T05:05:06.735Z,99645.81
2023-03-13T05:05:38.161Z,99659.38
2023-03-13T05:06:10.031Z,99636.78
2023-03-13T05:06:41.723Z,99644.97
2023-03-13T05:07:13.111Z,99652.38
2023-03-13T05:07:44.542Z,99641.47
2023-03-13T05:08:16.162Z,99651.56
2023-03-13T05:08:47.524Z,99654.28
2023-03-13T05:09:18.907Z,99657.78
2023-03-13T05:09:50.657Z,99652.75
2023-03-13T05:10:21.996Z,99646.88
2023-03-13T05:10:53.339Z,99644.53
2023-03-13T05:11:24.812Z,99649.22
2023-03-13T05:11:58.177Z,99657.03
2023-03-13T05:12:29.739Z,99645.69
2023-03-13T05:13:01.142Z,99649.59
2023-03-13T05:13:32.708Z,99642.16
2023-03-13T05:14:04.530Z,99653.44
2023-03-13T05:14:35.998Z,99653.44
2023-03-13T05:15:08.130Z,99651.50
2023-03-13T05:15:39.526Z,99645.25
2023-03-13T05:16:10.916Z,99654.59
2023-03-13T05:16:42.287Z,99640.97
2023-03-13T05:17:13.770Z,99645.63
2023-03-13T05:17:45.098Z,99642.53
2023-03-13T05:18:16.732Z,99649.53
2023-03-13T05:18:48.150Z,99635.50
2023-03-13T05:19:19.697Z,99637.81
2023-03-13T05:19:51.166Z,99647.97
2023-03-13T05:20:22.532Z,99632.00
2023-03-13T05:20:54.104Z,99640.91
2023-03-13T05:21:25.564Z,99646.38
2023-03-13T05:21:56.956Z,99651.06
2023-03-13T05:22:28.353Z,99637.06
2023-03-13T05:22:59.828Z,99645.19
2023-03-13T05:23:31.706Z,99649.88
2023-03-13T05:24:03.075Z,99638.19
2023-03-13T05:24:34.472Z,99632.38
2023-03-13T05:25:06.136Z,99647.91
2023-03-13T05:25:37.599Z,99637.00
2023-03-13T05:26:09.102Z,99635.88
2023-03-13T05:26:40.448Z,99644.00
2023-03-13T05:27:11.799Z,99655.31
2023-03-13T05:27:43.216Z,99630.81
2023-03-13T05:28:14.611Z,99640.56
2023-03-13T05:28:46.366Z,99644.81
2023-03-13T05:29:17.762Z,99630.00
2023-03-13T05:29:49.286Z,99638.97
2023-03-13T05:30:20.789Z,99640.16
2023-03-13T05:30:52.437Z,99648.72
2023-03-13T05:31:23.901Z,99630.00
2023-03-13T05:31:55.415Z,99645.97
2023-03-13T05:32:26.967Z,99642.81
2023-03-13T05:32:58.625Z,99643.56
2023-03-13T05:33:30.000Z,99639.66
2023-03-13T05:34:01.477Z,99640.03
2023-03-13T05:34:32.889Z,99631.84
2023-03-13T05:35:04.543Z,99642.75
2023-03-13T05:35:35.939Z,99641.22
2023-03-13T05:36:07.885Z,99647.03
2023-03-13T05:36:39.383Z,99646.63
2023-03-13T05:37:10.794Z,99647.03
2023-03-13T05:37:43.076Z,99636.13
2023-03-13T05:38:14.889Z,99631.44
2023-03-13T05:38:46.284Z,99634.59
2023-03-13T05:39:17.764Z,99619.75
2023-03-13T05:39:49.186Z,99624.84
2023-03-13T05:40:20.607Z,99638.44
2023-03-13T05:40:52.038Z,99620.94
2023-03-13T05:41:23.556Z,99636.09
2023-03-13T05:41:55.142Z,99629.09
2023-03-13T05:42:27.092Z,99635.34
2023-03-13T05:42:59.310Z,99646.22
2023-03-13T05:43:30.772Z,99624.41
2023-03-13T05:44:02.200Z,99641.53
2023-03-13T05:44:33.562Z,99625.94
2023-03-13T05:45:05.474Z,99625.59
2023-03-13T05:45:36.942Z,99629.44
2023-03-13T05:46:08.407Z,99640.00
2023-03-13T05:46:39.916Z,99638.44
2023-03-13T05:47:11.459Z,99635.31
2023-03-13T05:47:42.909Z,99635.28
2023-03-13T05:48:14.304Z,99638.41
2023-03-13T05:48:46.822Z,99634.50
2023-03-13T05:49:18.247Z,99644.22
2023-03-13T05:49:49.654Z,99629.81
2023-03-13T05:50:21.134Z,99629.41
2023-03-13T05:50:52.514Z,99639.91
2023-03-13T05:51:23.873Z,99629.78
2023-03-13T05:51:55.250Z,99620.81
2023-03-13T05:52:26.709Z,99632.16
2023-03-13T05:52:58.072Z,99623.16
2023-03-13T05:53:29.477Z,99627.81
2023-03-13T05:54:00.806Z,99635.97
2023-03-13T05:54:32.205Z,99611.06
2023-03-13T05:55:03.885Z,99614.88
2023-03-13T05:55:35.328Z,99613.00
2023-03-13T05:56:07.111Z,99619.59
2023-03-13T05:56:38.532Z,99597.78
2023-03-13T05:57:10.170Z,99600.06
2023-03-13T05:57:45.820Z,99615.66
2023-03-13T05:58:17.309Z,99607.47
2023-03-13T05:58:48.711Z,99616.88
2023-03-13T05:59:20.028Z,99604.75
2023-03-13T05:59:51.622Z,99606.28
2023-03-13T06:00:23.298Z,99609.78
2023-03-13T06:00:54.710Z,99603.97
2023-03-13T06:01:26.066Z,99604.75
2023-03-13T06:01:57.458Z,99612.53
2023-03-13T06:02:29.108Z,99607.06
2023-03-13T06:03:00.543Z,99617.22
2023-03-13T06:03:32.006Z,99584.06
2023-03-13T06:04:03.529Z,99601.19
2023-03-13T06:04:35.819Z,99614.84
2023-03-13T06:05:08.622Z,99597.69
2023-03-13T06:05:40.011Z,99612.47
2023-03-13T06:06:11.450Z,99606.25
2023-03-13T06:06:42.989Z,99595.34
2023-03-13T06:07:14.374Z,99597.69
2023-03-13T06:07:45.790Z,99598.06
2023-03-13T06:08:17.150Z,99591.47
2023-03-13T06:08:48.545Z,99607.84
2023-03-13T06:09:20.143Z,99597.69
2023-03-13T06:09:51.531Z,99591.09
2023-03-13T06:10:22.918Z,99598.88
2023-03-13T06:10:54.588Z,99592.31
2023-03-13T06:11:25.998Z,99596.94
2023-03-13T06:11:57.425Z,99597.69
2023-03-13T06:12:29.007Z,99586.41
2023-03-13T06:13:13.746Z,99596.16
2023-03-13T06:13:50.780Z,99590.66
2023-03-13T06:14:22.775Z,99595.34
2023-03-13T06:14:54.414Z,99581.69
2023-03-13T06:15:25.759Z,99594.56
2023-03-13T06:15:59.638Z,99594.56
2023-03-13T06:16:31.214Z,99599.63
2023-03-13T06:17:02.726Z,99587.16
2023-03-13T06:17:34.054Z,99598.44
2023-03-13T06:18:05.507Z,99596.47
2023-03-13T06:18:37.025Z,99586.75
2023-03-13T06:19:08.408Z,99587.50
2023-03-13T06:19:39.824Z,99590.25
2023-03-13T06:20:12.094Z,99586.34
2023-03-13T06:20:43.488Z,99589.88
2023-03-13T06:21:15.242Z,99592.94
2023-03-13T06:21:46.701Z,99586.69
2023-03-13T06:22:18.530Z,99589.84
2023-03-13T06:22:49.950Z,99596.47
2023-03-13T06:23:21.301Z,99596.06